sensor_id;sensor_type;location;lat;lon;timestamp;temperature;humidity
74792;SHT30;63319;46.046;17.802;2023-04-25T00:00:24;23.97;46.30
74792;SHT30;63319;46.046;17.802;2023-04-25T00:03:27;23.96;46.26
74792;SHT30;63319;46.046;17.802;2023-04-25T00:06:34;23.93;46.26
74792;SHT30;63319;46.046;17.802;2023-04-25T00:09:38;23.92;46.22
74792;SHT30;63319;46.046;17.802;2023-04-25T00:12:41;23.93;46.15
74792;SHT30;63319;46.046;17.802;2023-04-25T00:15:44;23.92;46.31
74792;SHT30;63319;46.046;17.802;2023-04-25T00:18:49;23.93;46.24
74792;SHT30;63319;46.046;17.802;2023-04-25T00:21:54;23.90;46.36
74792;SHT30;63319;46.046;17.802;2023-04-25T00:24:57;23.92;46.19
74792;SHT30;63319;46.046;17.802;2023-04-25T00:28:02;23.93;46.39
74792;SHT30;63319;46.046;17.802;2023-04-25T00:31:05;23.93;46.40
74792;SHT30;63319;46.046;17.802;2023-04-25T00:34:09;23.92;46.26
74792;SHT30;63319;46.046;17.802;2023-04-25T00:37:12;23.92;46.37
74792;SHT30;63319;46.046;17.802;2023-04-25T00:40:15;23.89;46.21
74792;SHT30;63319;46.046;17.802;2023-04-25T00:43:18;23.92;46.22
74792;SHT30;63319;46.046;17.802;2023-04-25T00:46:20;23.93;46.35
74792;SHT30;63319;46.046;17.802;2023-04-25T00:49:24;23.90;46.33
74792;SHT30;63319;46.046;17.802;2023-04-25T00:52:27;23.90;46.25
74792;SHT30;63319;46.046;17.802;2023-04-25T00:55:30;23.87;46.12
74792;SHT30;63319;46.046;17.802;2023-04-25T00:58:34;23.89;46.05
74792;SHT30;63319;46.046;17.802;2023-04-25T01:01:38;23.89;46.04
74792;SHT30;63319;46.046;17.802;2023-04-25T01:04:41;23.87;46.03
74792;SHT30;63319;46.046;17.802;2023-04-25T01:07:44;23.89;46.20
74792;SHT30;63319;46.046;17.802;2023-04-25T01:10:48;23.86;46.08
74792;SHT30;63319;46.046;17.802;2023-04-25T01:13:52;23.85;46.15
74792;SHT30;63319;46.046;17.802;2023-04-25T01:16:55;23.86;46.01
74792;SHT30;63319;46.046;17.802;2023-04-25T01:19:57;23.87;45.73
74792;SHT30;63319;46.046;17.802;2023-04-25T01:23:01;23.89;46.16
74792;SHT30;63319;46.046;17.802;2023-04-25T01:26:07;23.83;45.92
74792;SHT30;63319;46.046;17.802;2023-04-25T01:29:11;23.83;45.97
74792;SHT30;63319;46.046;17.802;2023-04-25T01:32:14;23.83;45.97
74792;SHT30;63319;46.046;17.802;2023-04-25T01:35:17;23.82;45.96
74792;SHT30;63319;46.046;17.802;2023-04-25T01:38:20;23.80;45.96
74792;SHT30;63319;46.046;17.802;2023-04-25T01:41:23;23.80;46.07
74792;SHT30;63319;46.046;17.802;2023-04-25T01:44:26;23.80;45.79
74792;SHT30;63319;46.046;17.802;2023-04-25T01:47:29;23.79;45.80
74792;SHT30;63319;46.046;17.802;2023-04-25T01:50:34;23.77;45.95
74792;SHT30;63319;46.046;17.802;2023-04-25T01:53:38;23.79;45.98
74792;SHT30;63319;46.046;17.802;2023-04-25T01:56:42;23.77;45.59
74792;SHT30;63319;46.046;17.802;2023-04-25T01:59:46;23.76;45.98
74792;SHT30;63319;46.046;17.802;2023-04-25T02:03:12;23.75;46.05
74792;SHT30;63319;46.046;17.802;2023-04-25T02:06:16;23.75;45.93
74792;SHT30;63319;46.046;17.802;2023-04-25T02:09:20;23.76;46.05
74792;SHT30;63319;46.046;17.802;2023-04-25T02:12:27;23.75;45.97
74792;SHT30;63319;46.046;17.802;2023-04-25T02:15:49;23.73;45.98
74792;SHT30;63319;46.046;17.802;2023-04-25T02:18:54;23.76;45.85
74792;SHT30;63319;46.046;17.802;2023-04-25T02:21:57;23.75;45.95
74792;SHT30;63319;46.046;17.802;2023-04-25T02:25:01;23.76;45.93
74792;SHT30;63319;46.046;17.802;2023-04-25T02:28:04;23.73;46.04
74792;SHT30;63319;46.046;17.802;2023-04-25T02:31:06;23.73;45.85
74792;SHT30;63319;46.046;17.802;2023-04-25T02:34:09;23.73;46.00
74792;SHT30;63319;46.046;17.802;2023-04-25T02:37:13;23.75;45.94
74792;SHT30;63319;46.046;17.802;2023-04-25T02:40:16;23.73;45.82
74792;SHT30;63319;46.046;17.802;2023-04-25T02:43:19;23.73;45.82
74792;SHT30;63319;46.046;17.802;2023-04-25T02:46:23;23.75;45.95
74792;SHT30;63319;46.046;17.802;2023-04-25T02:49:40;23.76;45.80
74792;SHT30;63319;46.046;17.802;2023-04-25T02:52:44;23.75;45.82
74792;SHT30;63319;46.046;17.802;2023-04-25T02:55:51;23.70;45.82
74792;SHT30;63319;46.046;17.802;2023-04-25T02:58:55;23.72;45.98
74792;SHT30;63319;46.046;17.802;2023-04-25T03:01:58;23.69;45.93
74792;SHT30;63319;46.046;17.802;2023-04-25T03:05:01;23.70;45.95
74792;SHT30;63319;46.046;17.802;2023-04-25T03:08:06;23.72;45.74
74792;SHT30;63319;46.046;17.802;2023-04-25T03:11:09;23.69;45.75
74792;SHT30;63319;46.046;17.802;2023-04-25T03:14:13;23.69;45.71
74792;SHT30;63319;46.046;17.802;2023-04-25T03:17:16;23.69;45.84
74792;SHT30;63319;46.046;17.802;2023-04-25T03:20:18;23.70;45.92
74792;SHT30;63319;46.046;17.802;2023-04-25T03:23:22;23.67;45.96
74792;SHT30;63319;46.046;17.802;2023-04-25T03:26:25;23.72;46.05
74792;SHT30;63319;46.046;17.802;2023-04-25T03:29:27;23.70;45.91
74792;SHT30;63319;46.046;17.802;2023-04-25T03:32:32;23.67;45.93
74792;SHT30;63319;46.046;17.802;2023-04-25T03:35:35;23.65;45.66
74792;SHT30;63319;46.046;17.802;2023-04-25T03:38:38;23.65;45.57
74792;SHT30;63319;46.046;17.802;2023-04-25T03:41:41;23.66;45.82
74792;SHT30;63319;46.046;17.802;2023-04-25T03:44:49;23.65;45.94
74792;SHT30;63319;46.046;17.802;2023-04-25T03:48:00;23.66;45.90
74792;SHT30;63319;46.046;17.802;2023-04-25T03:51:23;23.63;45.59
74792;SHT30;63319;46.046;17.802;2023-04-25T03:54:25;23.66;45.69
74792;SHT30;63319;46.046;17.802;2023-04-25T03:57:39;23.65;46.18
74792;SHT30;63319;46.046;17.802;2023-04-25T04:00:43;23.67;46.13
74792;SHT30;63319;46.046;17.802;2023-04-25T04:03:46;23.67;45.79
74792;SHT30;63319;46.046;17.802;2023-04-25T04:06:49;23.67;45.72
74792;SHT30;63319;46.046;17.802;2023-04-25T04:09:58;23.65;45.77
74792;SHT30;63319;46.046;17.802;2023-04-25T04:13:09;23.65;45.78
74792;SHT30;63319;46.046;17.802;2023-04-25T04:16:12;23.65;45.63
74792;SHT30;63319;46.046;17.802;2023-04-25T04:19:15;23.63;45.83
74792;SHT30;63319;46.046;17.802;2023-04-25T04:22:32;23.63;45.77
74792;SHT30;63319;46.046;17.802;2023-04-25T04:25:40;23.63;45.84
74792;SHT30;63319;46.046;17.802;2023-04-25T04:29:03;23.65;45.69
74792;SHT30;63319;46.046;17.802;2023-04-25T04:32:20;23.65;45.78
74792;SHT30;63319;46.046;17.802;2023-04-25T04:35:24;23.66;45.84
74792;SHT30;63319;46.046;17.802;2023-04-25T04:38:27;23.66;45.71
74792;SHT30;63319;46.046;17.802;2023-04-25T04:41:34;23.65;45.60
74792;SHT30;63319;46.046;17.802;2023-04-25T04:44:55;23.66;45.62
74792;SHT30;63319;46.046;17.802;2023-04-25T04:48:14;23.66;45.58
74792;SHT30;63319;46.046;17.802;2023-04-25T04:51:35;23.69;45.57
74792;SHT30;63319;46.046;17.802;2023-04-25T04:55:03;23.69;45.67
74792;SHT30;63319;46.046;17.802;2023-04-25T04:58:19;23.66;45.59
74792;SHT30;63319;46.046;17.802;2023-04-25T05:01:28;23.65;45.40
74792;SHT30;63319;46.046;17.802;2023-04-25T05:04:51;23.69;45.49
74792;SHT30;63319;46.046;17.802;2023-04-25T05:08:14;23.69;45.44
74792;SHT30;63319;46.046;17.802;2023-04-25T05:11:34;23.69;45.27
74792;SHT30;63319;46.046;17.802;2023-04-25T05:14:46;23.72;45.22
74792;SHT30;63319;46.046;17.802;2023-04-25T05:18:12;23.72;45.40
74792;SHT30;63319;46.046;17.802;2023-04-25T05:21:38;23.72;45.33
74792;SHT30;63319;46.046;17.802;2023-04-25T05:24:52;23.79;45.16
74792;SHT30;63319;46.046;17.802;2023-04-25T05:28:15;23.79;45.57
74792;SHT30;63319;46.046;17.802;2023-04-25T05:31:53;23.79;45.48
74792;SHT30;63319;46.046;17.802;2023-04-25T05:34:56;23.82;45.40
74792;SHT30;63319;46.046;17.802;2023-04-25T05:38:03;23.83;45.37
74792;SHT30;63319;46.046;17.802;2023-04-25T05:41:24;23.85;45.02
74792;SHT30;63319;46.046;17.802;2023-04-25T05:44:37;23.85;45.32
74792;SHT30;63319;46.046;17.802;2023-04-25T05:48:00;23.87;45.20
74792;SHT30;63319;46.046;17.802;2023-04-25T05:51:45;23.90;45.03
74792;SHT30;63319;46.046;17.802;2023-04-25T05:55:07;23.92;44.74
74792;SHT30;63319;46.046;17.802;2023-04-25T05:58:10;23.96;44.83
74792;SHT30;63319;46.046;17.802;2023-04-25T06:01:14;23.99;44.61
74792;SHT30;63319;46.046;17.802;2023-04-25T06:04:18;24.02;45.03
74792;SHT30;63319;46.046;17.802;2023-04-25T06:07:21;24.04;44.57
74792;SHT30;63319;46.046;17.802;2023-04-25T06:10:24;24.12;45.06
74792;SHT30;63319;46.046;17.802;2023-04-25T06:13:28;24.14;44.76
74792;SHT30;63319;46.046;17.802;2023-04-25T06:16:31;24.24;44.99
74792;SHT30;63319;46.046;17.802;2023-04-25T06:19:35;24.31;44.76
74792;SHT30;63319;46.046;17.802;2023-04-25T06:22:39;24.37;44.55
74792;SHT30;63319;46.046;17.802;2023-04-25T06:25:41;24.45;44.91
74792;SHT30;63319;46.046;17.802;2023-04-25T06:28:45;24.47;44.55
74792;SHT30;63319;46.046;17.802;2023-04-25T06:31:47;24.50;44.79
74792;SHT30;63319;46.046;17.802;2023-04-25T06:35:10;24.52;44.57
74792;SHT30;63319;46.046;17.802;2023-04-25T06:38:13;24.57;44.75
74792;SHT30;63319;46.046;17.802;2023-04-25T06:41:21;24.61;44.72
74792;SHT30;63319;46.046;17.802;2023-04-25T06:44:23;24.68;44.91
74792;SHT30;63319;46.046;17.802;2023-04-25T06:47:28;24.75;44.78
74792;SHT30;63319;46.046;17.802;2023-04-25T06:50:34;24.83;44.81
74792;SHT30;63319;46.046;17.802;2023-04-25T06:53:37;24.93;44.73
74792;SHT30;63319;46.046;17.802;2023-04-25T06:56:48;24.95;44.49
74792;SHT30;63319;46.046;17.802;2023-04-25T06:59:50;24.96;44.72
74792;SHT30;63319;46.046;17.802;2023-04-25T07:02:53;24.96;44.68
74792;SHT30;63319;46.046;17.802;2023-04-25T07:05:56;23.99;44.51
74792;SHT30;63319;46.046;17.802;2023-04-25T07:09:00;24.10;44.77
74792;SHT30;63319;46.046;17.802;2023-04-25T07:12:03;23.66;45.24
74792;SHT30;63319;46.046;17.802;2023-04-25T07:15:07;23.61;45.63
74792;SHT30;63319;46.046;17.802;2023-04-25T07:18:14;23.75;44.97
74792;SHT30;63319;46.046;17.802;2023-04-25T07:21:18;23.79;43.65
74792;SHT30;63319;46.046;17.802;2023-04-25T07:24:23;23.94;45.55
74792;SHT30;63319;46.046;17.802;2023-04-25T07:27:28;24.10;44.12
74792;SHT30;63319;46.046;17.802;2023-04-25T07:30:38;24.04;44.36
74792;SHT30;63319;46.046;17.802;2023-04-25T07:33:40;24.13;44.58
74792;SHT30;63319;46.046;17.802;2023-04-25T07:36:43;24.20;43.00
74792;SHT30;63319;46.046;17.802;2023-04-25T07:39:46;24.33;44.71
74792;SHT30;63319;46.046;17.802;2023-04-25T07:42:49;24.07;42.80
74792;SHT30;63319;46.046;17.802;2023-04-25T07:46:02;24.10;44.36
74792;SHT30;63319;46.046;17.802;2023-04-25T07:49:07;24.02;42.39
74792;SHT30;63319;46.046;17.802;2023-04-25T07:52:11;24.04;41.51
74792;SHT30;63319;46.046;17.802;2023-04-25T07:55:20;24.14;43.60
74792;SHT30;63319;46.046;17.802;2023-04-25T07:58:33;24.52;43.93
74792;SHT30;63319;46.046;17.802;2023-04-25T08:01:38;24.79;42.07
74792;SHT30;63319;46.046;17.802;2023-04-25T08:04:42;24.95;42.29
74792;SHT30;63319;46.046;17.802;2023-04-25T08:07:47;25.02;39.34
74792;SHT30;63319;46.046;17.802;2023-04-25T08:10:51;25.33;40.76
74792;SHT30;63319;46.046;17.802;2023-04-25T08:13:54;25.46;40.32
74792;SHT30;63319;46.046;17.802;2023-04-25T08:16:57;25.87;40.74
74792;SHT30;63319;46.046;17.802;2023-04-25T08:20:01;26.11;38.97
74792;SHT30;63319;46.046;17.802;2023-04-25T08:23:09;26.16;38.99
74792;SHT30;63319;46.046;17.802;2023-04-25T08:26:28;26.52;38.67
74792;SHT30;63319;46.046;17.802;2023-04-25T08:29:31;26.67;37.35
74792;SHT30;63319;46.046;17.802;2023-04-25T08:32:34;27.07;37.48
74792;SHT30;63319;46.046;17.802;2023-04-25T08:35:58;27.48;36.23
74792;SHT30;63319;46.046;17.802;2023-04-25T08:39:04;27.76;35.38
74792;SHT30;63319;46.046;17.802;2023-04-25T08:45:34;28.66;34.04
74792;SHT30;63319;46.046;17.802;2023-04-25T08:48:40;28.99;32.75
74792;SHT30;63319;46.046;17.802;2023-04-25T08:51:45;29.03;30.41
74792;SHT30;63319;46.046;17.802;2023-04-25T08:55:12;29.27;31.97
74792;SHT30;63319;46.046;17.802;2023-04-25T08:58:26;29.14;30.94
74792;SHT30;63319;46.046;17.802;2023-04-25T09:01:31;29.19;32.04
74792;SHT30;63319;46.046;17.802;2023-04-25T09:04:35;29.57;30.93
74792;SHT30;63319;46.046;17.802;2023-04-25T09:07:39;29.19;31.90
74792;SHT30;63319;46.046;17.802;2023-04-25T09:10:43;29.68;28.28
74792;SHT30;63319;46.046;17.802;2023-04-25T09:13:48;29.99;30.47
74792;SHT30;63319;46.046;17.802;2023-04-25T09:16:58;30.12;28.65
74792;SHT30;63319;46.046;17.802;2023-04-25T09:20:22;30.02;30.21
74792;SHT30;63319;46.046;17.802;2023-04-25T09:23:26;29.72;30.99
74792;SHT30;63319;46.046;17.802;2023-04-25T09:26:40;30.01;28.40
74792;SHT30;63319;46.046;17.802;2023-04-25T09:29:47;30.12;30.62
74792;SHT30;63319;46.046;17.802;2023-04-25T09:32:57;30.12;27.84
74792;SHT30;63319;46.046;17.802;2023-04-25T09:36:08;29.54;29.66
74792;SHT30;63319;46.046;17.802;2023-04-25T09:39:39;28.95;29.29
74792;SHT30;63319;46.046;17.802;2023-04-25T09:42:49;29.46;29.38
74792;SHT30;63319;46.046;17.802;2023-04-25T09:45:54;29.70;30.81
74792;SHT30;63319;46.046;17.802;2023-04-25T09:49:08;29.75;30.40
74792;SHT30;63319;46.046;17.802;2023-04-25T09:52:25;29.38;26.84
74792;SHT30;63319;46.046;17.802;2023-04-25T09:55:47;29.30;29.80
74792;SHT30;63319;46.046;17.802;2023-04-25T09:58:53;29.22;28.52
74792;SHT30;63319;46.046;17.802;2023-04-25T10:01:58;29.46;30.41
74792;SHT30;63319;46.046;17.802;2023-04-25T10:05:10;29.65;30.20
74792;SHT30;63319;46.046;17.802;2023-04-25T10:08:16;29.67;27.17
74792;SHT30;63319;46.046;17.802;2023-04-25T10:11:21;29.81;26.83
74792;SHT30;63319;46.046;17.802;2023-04-25T10:14:27;29.86;27.87
74792;SHT30;63319;46.046;17.802;2023-04-25T10:17:32;30.05;28.13
74792;SHT30;63319;46.046;17.802;2023-04-25T10:20:37;29.77;26.46
74792;SHT30;63319;46.046;17.802;2023-04-25T10:23:41;29.84;27.15
74792;SHT30;63319;46.046;17.802;2023-04-25T10:26:46;30.02;29.39
74792;SHT30;63319;46.046;17.802;2023-04-25T10:30:10;29.91;28.11
74792;SHT30;63319;46.046;17.802;2023-04-25T10:33:18;29.82;28.64
74792;SHT30;63319;46.046;17.802;2023-04-25T10:36:25;29.84;27.26
74792;SHT30;63319;46.046;17.802;2023-04-25T10:39:32;29.89;25.23
74792;SHT30;63319;46.046;17.802;2023-04-25T10:42:35;30.26;28.60
74792;SHT30;63319;46.046;17.802;2023-04-25T10:45:53;30.22;27.38
74792;SHT30;63319;46.046;17.802;2023-04-25T10:49:01;30.25;28.34
74792;SHT30;63319;46.046;17.802;2023-04-25T10:52:15;29.95;29.65
74792;SHT30;63319;46.046;17.802;2023-04-25T10:55:19;29.98;28.30
74792;SHT30;63319;46.046;17.802;2023-04-25T10:58:23;30.10;28.71
74792;SHT30;63319;46.046;17.802;2023-04-25T11:01:26;30.06;28.66
74792;SHT30;63319;46.046;17.802;2023-04-25T11:04:35;30.13;28.49
74792;SHT30;63319;46.046;17.802;2023-04-25T11:07:53;30.19;29.07
74792;SHT30;63319;46.046;17.802;2023-04-25T11:11:09;29.81;29.67
74792;SHT30;63319;46.046;17.802;2023-04-25T11:14:12;30.13;29.33
74792;SHT30;63319;46.046;17.802;2023-04-25T11:17:15;30.22;28.66
74792;SHT30;63319;46.046;17.802;2023-04-25T11:20:18;30.36;29.51
74792;SHT30;63319;46.046;17.802;2023-04-25T11:23:21;30.09;28.95
74792;SHT30;63319;46.046;17.802;2023-04-25T11:26:24;29.27;30.53
74792;SHT30;63319;46.046;17.802;2023-04-25T11:29:29;29.33;28.41
74792;SHT30;63319;46.046;17.802;2023-04-25T11:32:33;28.75;29.13
74792;SHT30;63319;46.046;17.802;2023-04-25T11:35:37;28.71;31.54
74792;SHT30;63319;46.046;17.802;2023-04-25T11:38:42;28.38;29.85
74792;SHT30;63319;46.046;17.802;2023-04-25T11:41:46;28.54;29.75
74792;SHT30;63319;46.046;17.802;2023-04-25T11:44:49;28.61;31.67
74792;SHT30;63319;46.046;17.802;2023-04-25T11:47:52;28.96;31.45
74792;SHT30;63319;46.046;17.802;2023-04-25T11:50:55;29.07;31.82
74792;SHT30;63319;46.046;17.802;2023-04-25T11:53:57;29.27;31.28
74792;SHT30;63319;46.046;17.802;2023-04-25T11:57:01;29.19;31.91
74792;SHT30;63319;46.046;17.802;2023-04-25T12:00:17;29.04;32.15
74792;SHT30;63319;46.046;17.802;2023-04-25T12:03:20;28.99;33.26
74792;SHT30;63319;46.046;17.802;2023-04-25T12:06:28;29.03;35.27
74792;SHT30;63319;46.046;17.802;2023-04-25T12:09:32;29.02;37.22
74792;SHT30;63319;46.046;17.802;2023-04-25T12:12:36;28.99;37.79
74792;SHT30;63319;46.046;17.802;2023-04-25T12:15:40;28.91;38.24
74792;SHT30;63319;46.046;17.802;2023-04-25T12:18:46;28.92;37.98
74792;SHT30;63319;46.046;17.802;2023-04-25T12:21:51;28.71;37.92
74792;SHT30;63319;46.046;17.802;2023-04-25T12:24:57;28.75;36.77
74792;SHT30;63319;46.046;17.802;2023-04-25T12:28:14;28.88;35.34
74792;SHT30;63319;46.046;17.802;2023-04-25T12:31:17;28.68;35.66
74792;SHT30;63319;46.046;17.802;2023-04-25T12:34:21;28.52;35.60
74792;SHT30;63319;46.046;17.802;2023-04-25T12:37:24;28.40;35.94
74792;SHT30;63319;46.046;17.802;2023-04-25T12:40:27;28.31;35.76
74792;SHT30;63319;46.046;17.802;2023-04-25T12:43:30;28.22;35.74
74792;SHT30;63319;46.046;17.802;2023-04-25T12:46:33;28.22;35.35
74792;SHT30;63319;46.046;17.802;2023-04-25T12:49:36;28.11;35.75
74792;SHT30;63319;46.046;17.802;2023-04-25T12:52:39;28.07;36.16
74792;SHT30;63319;46.046;17.802;2023-04-25T12:55:45;28.04;36.43
74792;SHT30;63319;46.046;17.802;2023-04-25T12:58:51;28.00;36.69
74792;SHT30;63319;46.046;17.802;2023-04-25T13:01:55;27.97;36.86
74792;SHT30;63319;46.046;17.802;2023-04-25T13:04:58;27.96;36.88
74792;SHT30;63319;46.046;17.802;2023-04-25T13:08:00;27.93;37.05
74792;SHT30;63319;46.046;17.802;2023-04-25T13:11:04;27.98;36.94
74792;SHT30;63319;46.046;17.802;2023-04-25T13:14:07;28.01;36.96
74792;SHT30;63319;46.046;17.802;2023-04-25T13:17:10;28.01;36.94
74792;SHT30;63319;46.046;17.802;2023-04-25T13:20:13;27.97;36.97
74792;SHT30;63319;46.046;17.802;2023-04-25T13:23:20;27.98;37.01
74792;SHT30;63319;46.046;17.802;2023-04-25T13:26:23;27.92;37.15
74792;SHT30;63319;46.046;17.802;2023-04-25T13:29:26;27.89;37.21
74792;SHT30;63319;46.046;17.802;2023-04-25T13:32:28;27.87;37.31
74792;SHT30;63319;46.046;17.802;2023-04-25T13:35:33;27.83;37.38
74792;SHT30;63319;46.046;17.802;2023-04-25T13:38:36;27.79;37.40
74792;SHT30;63319;46.046;17.802;2023-04-25T13:41:38;27.73;37.56
74792;SHT30;63319;46.046;17.802;2023-04-25T13:44:41;27.71;37.68
74792;SHT30;63319;46.046;17.802;2023-04-25T13:47:44;27.63;37.77
74792;SHT30;63319;46.046;17.802;2023-04-25T13:50:47;27.56;37.86
74792;SHT30;63319;46.046;17.802;2023-04-25T13:53:50;27.52;38.03
74792;SHT30;63319;46.046;17.802;2023-04-25T13:56:53;27.50;38.03
74792;SHT30;63319;46.046;17.802;2023-04-25T14:00:01;27.50;37.91
74792;SHT30;63319;46.046;17.802;2023-04-25T14:03:13;27.49;37.97
74792;SHT30;63319;46.046;17.802;2023-04-25T14:06:19;27.43;38.22
74792;SHT30;63319;46.046;17.802;2023-04-25T14:09:25;27.43;38.18
74792;SHT30;63319;46.046;17.802;2023-04-25T14:12:29;27.41;38.33
74792;SHT30;63319;46.046;17.802;2023-04-25T14:15:33;27.37;38.28
74792;SHT30;63319;46.046;17.802;2023-04-25T14:18:36;27.37;38.38
74792;SHT30;63319;46.046;17.802;2023-04-25T14:21:38;27.27;38.62
74792;SHT30;63319;46.046;17.802;2023-04-25T14:24:43;27.22;38.57
74792;SHT30;63319;46.046;17.802;2023-04-25T14:27:46;27.21;38.42
74792;SHT30;63319;46.046;17.802;2023-04-25T14:30:52;27.15;38.55
74792;SHT30;63319;46.046;17.802;2023-04-25T14:33:55;27.15;38.55
74792;SHT30;63319;46.046;17.802;2023-04-25T14:37:00;27.12;38.62
74792;SHT30;63319;46.046;17.802;2023-04-25T14:40:03;27.11;38.59
74792;SHT30;63319;46.046;17.802;2023-04-25T14:43:07;27.11;38.63
74792;SHT30;63319;46.046;17.802;2023-04-25T14:46:10;27.10;38.72
74792;SHT30;63319;46.046;17.802;2023-04-25T14:49:13;27.07;38.73
74792;SHT30;63319;46.046;17.802;2023-04-25T14:52:17;27.05;38.83
74792;SHT30;63319;46.046;17.802;2023-04-25T14:55:19;27.02;38.96
74792;SHT30;63319;46.046;17.802;2023-04-25T14:58:22;27.00;38.89
74792;SHT30;63319;46.046;17.802;2023-04-25T15:01:28;27.00;38.89
74792;SHT30;63319;46.046;17.802;2023-04-25T15:04:32;26.95;38.91
74792;SHT30;63319;46.046;17.802;2023-04-25T15:07:34;26.94;39.08
74792;SHT30;63319;46.046;17.802;2023-04-25T15:10:37;26.95;38.98
74792;SHT30;63319;46.046;17.802;2023-04-25T15:13:40;26.91;39.09
74792;SHT30;63319;46.046;17.802;2023-04-25T15:16:43;26.87;39.14
74792;SHT30;63319;46.046;17.802;2023-04-25T15:19:46;26.84;39.14
74792;SHT30;63319;46.046;17.802;2023-04-25T15:22:49;26.81;39.16
74792;SHT30;63319;46.046;17.802;2023-04-25T15:25:52;26.77;39.21
74792;SHT30;63319;46.046;17.802;2023-04-25T15:28:57;26.72;39.20
74792;SHT30;63319;46.046;17.802;2023-04-25T15:32:01;26.69;39.27
74792;SHT30;63319;46.046;17.802;2023-04-25T15:35:05;26.67;39.37
74792;SHT30;63319;46.046;17.802;2023-04-25T15:38:08;26.63;39.40
74792;SHT30;63319;46.046;17.802;2023-04-25T15:41:13;26.60;39.55
74792;SHT30;63319;46.046;17.802;2023-04-25T15:44:15;26.54;39.65
74792;SHT30;63319;46.046;17.802;2023-04-25T15:47:18;26.53;39.68
74792;SHT30;63319;46.046;17.802;2023-04-25T15:50:21;26.47;39.68
74792;SHT30;63319;46.046;17.802;2023-04-25T15:53:24;26.47;39.79
74792;SHT30;63319;46.046;17.802;2023-04-25T15:56:27;26.43;39.79
74792;SHT30;63319;46.046;17.802;2023-04-25T15:59:36;26.42;39.85
74792;SHT30;63319;46.046;17.802;2023-04-25T16:02:41;26.37;39.92
74792;SHT30;63319;46.046;17.802;2023-04-25T16:05:44;26.36;39.97
74792;SHT30;63319;46.046;17.802;2023-04-25T16:08:47;26.31;40.03
74792;SHT30;63319;46.046;17.802;2023-04-25T16:11:50;26.29;40.09
74792;SHT30;63319;46.046;17.802;2023-04-25T16:14:53;26.25;40.10
74792;SHT30;63319;46.046;17.802;2023-04-25T16:17:56;26.22;40.14
74792;SHT30;63319;46.046;17.802;2023-04-25T16:20:59;26.19;40.21
74792;SHT30;63319;46.046;17.802;2023-04-25T16:24:05;26.16;40.29
74792;SHT30;63319;46.046;17.802;2023-04-25T16:27:08;26.12;40.35
74792;SHT30;63319;46.046;17.802;2023-04-25T16:30:11;26.08;40.40
74792;SHT30;63319;46.046;17.802;2023-04-25T16:33:14;26.04;40.49
74792;SHT30;63319;46.046;17.802;2023-04-25T16:36:17;26.02;40.50
74792;SHT30;63319;46.046;17.802;2023-04-25T16:39:20;25.99;40.52
74792;SHT30;63319;46.046;17.802;2023-04-25T16:42:25;25.98;40.59
74792;SHT30;63319;46.046;17.802;2023-04-25T16:45:29;25.92;40.63
74792;SHT30;63319;46.046;17.802;2023-04-25T16:48:33;25.91;40.69
74792;SHT30;63319;46.046;17.802;2023-04-25T16:51:39;25.85;40.68
74792;SHT30;63319;46.046;17.802;2023-04-25T16:54:42;25.85;40.77
74792;SHT30;63319;46.046;17.802;2023-04-25T16:57:45;25.82;40.69
74792;SHT30;63319;46.046;17.802;2023-04-25T17:00:48;25.77;40.81
74792;SHT30;63319;46.046;17.802;2023-04-25T17:03:51;25.77;40.71
74792;SHT30;63319;46.046;17.802;2023-04-25T17:06:54;25.73;40.90
74792;SHT30;63319;46.046;17.802;2023-04-25T17:09:58;25.68;40.97
74792;SHT30;63319;46.046;17.802;2023-04-25T17:13:01;25.68;40.98
74792;SHT30;63319;46.046;17.802;2023-04-25T17:16:04;25.67;41.04
74792;SHT30;63319;46.046;17.802;2023-04-25T17:19:08;25.66;41.09
74792;SHT30;63319;46.046;17.802;2023-04-25T17:22:12;25.61;41.09
74792;SHT30;63319;46.046;17.802;2023-04-25T17:25:15;25.60;41.10
74792;SHT30;63319;46.046;17.802;2023-04-25T17:28:20;25.56;41.19
74792;SHT30;63319;46.046;17.802;2023-04-25T17:31:24;25.56;41.10
74792;SHT30;63319;46.046;17.802;2023-04-25T17:34:27;25.54;41.20
74792;SHT30;63319;46.046;17.802;2023-04-25T17:37:33;25.50;41.25
74792;SHT30;63319;46.046;17.802;2023-04-25T17:40:37;25.44;41.33
74792;SHT30;63319;46.046;17.802;2023-04-25T17:43:40;25.41;41.33
74792;SHT30;63319;46.046;17.802;2023-04-25T17:46:43;25.40;41.41
74792;SHT30;63319;46.046;17.802;2023-04-25T17:49:47;25.37;41.35
74792;SHT30;63319;46.046;17.802;2023-04-25T17:52:51;25.33;41.55
74792;SHT30;63319;46.046;17.802;2023-04-25T17:55:54;25.27;41.47
74792;SHT30;63319;46.046;17.802;2023-04-25T17:58:58;25.27;41.47
74792;SHT30;63319;46.046;17.802;2023-04-25T18:02:01;25.23;41.59
74792;SHT30;63319;46.046;17.802;2023-04-25T18:08:29;25.18;41.77
74792;SHT30;63319;46.046;17.802;2023-04-25T18:11:33;25.16;41.59
74792;SHT30;63319;46.046;17.802;2023-04-25T18:14:36;25.16;41.88
74792;SHT30;63319;46.046;17.802;2023-04-25T18:17:40;25.13;41.79
74792;SHT30;63319;46.046;17.802;2023-04-25T18:20:43;25.10;41.74
74792;SHT30;63319;46.046;17.802;2023-04-25T18:23:48;25.08;41.76
74792;SHT30;63319;46.046;17.802;2023-04-25T18:26:52;25.06;41.75
74792;SHT30;63319;46.046;17.802;2023-04-25T18:29:57;25.06;41.93
74792;SHT30;63319;46.046;17.802;2023-04-25T18:33:00;25.02;41.79
74792;SHT30;63319;46.046;17.802;2023-04-25T18:36:04;25.00;41.84
74792;SHT30;63319;46.046;17.802;2023-04-25T18:39:07;24.98;41.76
74792;SHT30;63319;46.046;17.802;2023-04-25T18:42:14;25.00;41.85
74792;SHT30;63319;46.046;17.802;2023-04-25T18:45:18;24.95;41.93
74792;SHT30;63319;46.046;17.802;2023-04-25T18:48:24;24.92;42.15
74792;SHT30;63319;46.046;17.802;2023-04-25T18:51:28;24.92;42.06
74792;SHT30;63319;46.046;17.802;2023-04-25T18:54:33;24.92;42.10
74792;SHT30;63319;46.046;17.802;2023-04-25T18:57:37;24.86;41.94
74792;SHT30;63319;46.046;17.802;2023-04-25T19:00:41;24.86;41.98
74792;SHT30;63319;46.046;17.802;2023-04-25T19:03:46;24.83;42.20
74792;SHT30;63319;46.046;17.802;2023-04-25T19:06:58;24.82;42.32
74792;SHT30;63319;46.046;17.802;2023-04-25T19:10:05;24.79;42.12
74792;SHT30;63319;46.046;17.802;2023-04-25T19:13:10;24.79;42.17
74792;SHT30;63319;46.046;17.802;2023-04-25T19:16:18;24.79;42.22
74792;SHT30;63319;46.046;17.802;2023-04-25T19:19:22;24.75;42.37
74792;SHT30;63319;46.046;17.802;2023-04-25T19:22:25;24.73;42.45